sensor_id;sensor_type;location;lat;lon;timestamp;P1;durP1;ratioP1;P2;durP2;ratioP2
17253;SDS011;32542;52.832;13.816;2023-03-19T00:01:33;6.82;;;2.97;;
17253;SDS011;32542;52.832;13.816;2023-03-19T00:04:36;10.77;;;3.58;;
17253;SDS011;32542;52.832;13.816;2023-03-19T00:07:40;6.28;;;3.33;;
17253;SDS011;32542;52.832;13.816;2023-03-19T00:10:43;6.85;;;2.70;;
17253;SDS011;32542;52.832;13.816;2023-03-19T00:13:46;6.15;;;2.90;;
17253;SDS011;32542;52.832;13.816;2023-03-19T00:16:49;7.07;;;2.90;;
17253;SDS011;32542;52.832;13.816;2023-03-19T00:20:16;5.90;;;3.28;;
17253;SDS011;32542;52.832;13.816;2023-03-19T00:23:22;7.13;;;3.00;;
17253;SDS011;32542;52.832;13.816;2023-03-19T00:26:24;8.43;;;3.40;;
17253;SDS011;32542;52.832;13.816;2023-03-19T00:29:27;4.05;;;2.80;;
17253;SDS011;32542;52.832;13.816;2023-03-19T00:32:31;4.70;;;2.67;;
17253;SDS011;32542;52.832;13.816;2023-03-19T00:35:34;5.28;;;2.83;;
17253;SDS011;32542;52.832;13.816;2023-03-19T00:38:38;4.80;;;2.70;;
17253;SDS011;32542;52.832;13.816;2023-03-19T00:41:41;4.15;;;2.90;;
17253;SDS011;32542;52.832;13.816;2023-03-19T00:44:50;5.60;;;3.03;;
17253;SDS011;32542;52.832;13.816;2023-03-19T00:47:53;4.28;;;2.75;;
17253;SDS011;32542;52.832;13.816;2023-03-19T00:51:00;6.75;;;2.95;;
17253;SDS011;32542;52.832;13.816;2023-03-19T00:54:06;4.90;;;2.80;;
17253;SDS011;32542;52.832;13.816;2023-03-19T00:57:09;4.20;;;3.05;;
17253;SDS011;32542;52.832;13.816;2023-03-19T01:00:12;5.78;;;3.10;;
17253;SDS011;32542;52.832;13.816;2023-03-19T01:03:18;5.38;;;2.70;;
17253;SDS011;32542;52.832;13.816;2023-03-19T01:06:21;6.95;;;3.20;;
17253;SDS011;32542;52.832;13.816;2023-03-19T01:09:25;5.97;;;2.97;;
17253;SDS011;32542;52.832;13.816;2023-03-19T01:12:28;5.70;;;2.80;;
17253;SDS011;32542;52.832;13.816;2023-03-19T01:15:33;5.03;;;2.72;;
17253;SDS011;32542;52.832;13.816;2023-03-19T01:18:37;7.90;;;3.47;;
17253;SDS011;32542;52.832;13.816;2023-03-19T01:21:40;4.85;;;2.92;;
17253;SDS011;32542;52.832;13.816;2023-03-19T01:24:50;5.63;;;3.08;;
17253;SDS011;32542;52.832;13.816;2023-03-19T01:27:53;4.07;;;2.70;;
17253;SDS011;32542;52.832;13.816;2023-03-19T01:30:57;4.38;;;2.90;;
17253;SDS011;32542;52.832;13.816;2023-03-19T01:34:07;5.38;;;2.58;;
17253;SDS011;32542;52.832;13.816;2023-03-19T01:37:27;5.57;;;3.40;;
17253;SDS011;32542;52.832;13.816;2023-03-19T01:40:31;5.07;;;2.45;;
17253;SDS011;32542;52.832;13.816;2023-03-19T01:43:35;6.22;;;3.28;;
17253;SDS011;32542;52.832;13.816;2023-03-19T01:46:45;5.00;;;2.45;;
17253;SDS011;32542;52.832;13.816;2023-03-19T01:50:05;4.80;;;2.70;;
17253;SDS011;32542;52.832;13.816;2023-03-19T01:53:26;3.72;;;2.65;;
17253;SDS011;32542;52.832;13.816;2023-03-19T01:56:42;6.63;;;3.33;;
17253;SDS011;32542;52.832;13.816;2023-03-19T01:59:58;7.90;;;3.05;;
17253;SDS011;32542;52.832;13.816;2023-03-19T02:03:16;5.07;;;2.85;;
17253;SDS011;32542;52.832;13.816;2023-03-19T02:06:34;5.40;;;3.17;;
17253;SDS011;32542;52.832;13.816;2023-03-19T02:09:38;6.10;;;3.22;;
17253;SDS011;32542;52.832;13.816;2023-03-19T02:12:43;5.22;;;3.00;;
17253;SDS011;32542;52.832;13.816;2023-03-19T02:15:46;4.35;;;2.70;;
17253;SDS011;32542;52.832;13.816;2023-03-19T02:18:50;5.75;;;3.47;;
17253;SDS011;32542;52.832;13.816;2023-03-19T02:21:54;4.65;;;2.95;;
17253;SDS011;32542;52.832;13.816;2023-03-19T02:24:58;4.07;;;2.67;;
17253;SDS011;32542;52.832;13.816;2023-03-19T02:28:11;3.97;;;3.25;;
17253;SDS011;32542;52.832;13.816;2023-03-19T02:31:17;5.72;;;2.90;;
17253;SDS011;32542;52.832;13.816;2023-03-19T02:34:37;3.80;;;2.63;;
17253;SDS011;32542;52.832;13.816;2023-03-19T02:37:42;3.92;;;2.80;;
17253;SDS011;32542;52.832;13.816;2023-03-19T02:40:46;4.20;;;2.80;;
17253;SDS011;32542;52.832;13.816;2023-03-19T02:43:56;5.43;;;2.65;;
17253;SDS011;32542;52.832;13.816;2023-03-19T02:47:01;6.30;;;3.17;;
17253;SDS011;32542;52.832;13.816;2023-03-19T02:50:05;5.32;;;3.20;;
17253;SDS011;32542;52.832;13.816;2023-03-19T02:53:09;3.90;;;2.95;;
17253;SDS011;32542;52.832;13.816;2023-03-19T02:56:12;3.88;;;2.70;;
17253;SDS011;32542;52.832;13.816;2023-03-19T02:59:16;4.32;;;3.03;;
17253;SDS011;32542;52.832;13.816;2023-03-19T03:02:19;5.00;;;3.13;;
17253;SDS011;32542;52.832;13.816;2023-03-19T03:05:22;3.72;;;2.85;;
17253;SDS011;32542;52.832;13.816;2023-03-19T03:08:25;4.03;;;2.83;;
17253;SDS011;32542;52.832;13.816;2023-03-19T03:11:28;7.40;;;2.78;;
17253;SDS011;32542;52.832;13.816;2023-03-19T03:14:33;4.75;;;2.90;;
17253;SDS011;32542;52.832;13.816;2023-03-19T03:17:36;4.82;;;2.78;;
17253;SDS011;32542;52.832;13.816;2023-03-19T03:20:39;5.43;;;2.95;;
17253;SDS011;32542;52.832;13.816;2023-03-19T03:23:42;4.38;;;2.80;;
17253;SDS011;32542;52.832;13.816;2023-03-19T03:26:45;4.53;;;2.92;;
17253;SDS011;32542;52.832;13.816;2023-03-19T03:29:50;4.07;;;2.90;;
17253;SDS011;32542;52.832;13.816;2023-03-19T03:32:53;5.97;;;3.00;;
17253;SDS011;32542;52.832;13.816;2023-03-19T03:35:56;3.40;;;3.00;;
17253;SDS011;32542;52.832;13.816;2023-03-19T03:38:59;6.40;;;3.17;;
17253;SDS011;32542;52.832;13.816;2023-03-19T03:42:02;4.15;;;2.50;;
17253;SDS011;32542;52.832;13.816;2023-03-19T03:45:08;4.88;;;2.80;;
17253;SDS011;32542;52.832;13.816;2023-03-19T03:48:14;3.83;;;2.70;;
17253;SDS011;32542;52.832;13.816;2023-03-19T03:51:18;5.07;;;3.13;;
17253;SDS011;32542;52.832;13.816;2023-03-19T03:54:22;5.47;;;3.17;;
17253;SDS011;32542;52.832;13.816;2023-03-19T03:57:25;5.93;;;3.40;;
17253;SDS011;32542;52.832;13.816;2023-03-19T04:00:31;3.95;;;2.75;;
17253;SDS011;32542;52.832;13.816;2023-03-19T04:03:34;4.30;;;2.55;;
17253;SDS011;32542;52.832;13.816;2023-03-19T04:06:37;4.47;;;2.53;;
17253;SDS011;32542;52.832;13.816;2023-03-19T04:09:52;4.95;;;2.78;;
17253;SDS011;32542;52.832;13.816;2023-03-19T04:12:55;4.40;;;3.08;;
17253;SDS011;32542;52.832;13.816;2023-03-19T04:16:03;5.35;;;3.15;;
17253;SDS011;32542;52.832;13.816;2023-03-19T04:19:06;5.28;;;3.00;;
17253;SDS011;32542;52.832;13.816;2023-03-19T04:22:09;5.07;;;2.70;;
17253;SDS011;32542;52.832;13.816;2023-03-19T04:25:12;4.70;;;2.75;;
17253;SDS011;32542;52.832;13.816;2023-03-19T04:28:15;4.32;;;2.95;;
17253;SDS011;32542;52.832;13.816;2023-03-19T04:31:20;4.60;;;2.75;;
17253;SDS011;32542;52.832;13.816;2023-03-19T04:34:23;3.72;;;2.85;;
17253;SDS011;32542;52.832;13.816;2023-03-19T04:37:26;2.92;;;2.53;;
17253;SDS011;32542;52.832;13.816;2023-03-19T04:40:29;5.07;;;3.05;;
17253;SDS011;32542;52.832;13.816;2023-03-19T04:43:32;4.03;;;3.05;;
17253;SDS011;32542;52.832;13.816;2023-03-19T04:46:39;3.28;;;2.88;;
17253;SDS011;32542;52.832;13.816;2023-03-19T04:49:42;5.65;;;3.20;;
17253;SDS011;32542;52.832;13.816;2023-03-19T04:52:45;3.45;;;2.67;;
17253;SDS011;32542;52.832;13.816;2023-03-19T04:55:48;4.75;;;2.60;;
17253;SDS011;32542;52.832;13.816;2023-03-19T04:58:53;4.90;;;2.70;;
17253;SDS011;32542;52.832;13.816;2023-03-19T05:01:58;2.55;;;2.28;;
17253;SDS011;32542;52.832;13.816;2023-03-19T05:05:02;4.22;;;2.60;;
17253;SDS011;32542;52.832;13.816;2023-03-19T05:08:05;4.00;;;3.00;;
17253;SDS011;32542;52.832;13.816;2023-03-19T05:11:09;3.47;;;2.53;;
17253;SDS011;32542;52.832;13.816;2023-03-19T05:14:28;3.67;;;2.75;;
17253;SDS011;32542;52.832;13.816;2023-03-19T05:17:45;7.07;;;3.33;;
17253;SDS011;32542;52.832;13.816;2023-03-19T05:21:03;4.30;;;3.00;;
17253;SDS011;32542;52.832;13.816;2023-03-19T05:24:06;3.95;;;2.78;;
17253;SDS011;32542;52.832;13.816;2023-03-19T05:27:11;3.95;;;2.60;;
17253;SDS011;32542;52.832;13.816;2023-03-19T05:30:23;3.70;;;2.88;;
17253;SDS011;32542;52.832;13.816;2023-03-19T05:33:42;3.50;;;2.60;;
17253;SDS011;32542;52.832;13.816;2023-03-19T05:36:45;4.00;;;2.65;;
17253;SDS011;32542;52.832;13.816;2023-03-19T05:39:51;3.70;;;2.72;;
17253;SDS011;32542;52.832;13.816;2023-03-19T05:42:54;3.40;;;2.65;;
17253;SDS011;32542;52.832;13.816;2023-03-19T05:46:00;4.30;;;3.00;;
17253;SDS011;32542;52.832;13.816;2023-03-19T05:49:07;4.10;;;2.65;;
17253;SDS011;32542;52.832;13.816;2023-03-19T05:52:10;4.75;;;3.00;;
17253;SDS011;32542;52.832;13.816;2023-03-19T05:55:14;4.93;;;3.25;;
17253;SDS011;32542;52.832;13.816;2023-03-19T05:58:20;3.58;;;2.55;;
17253;SDS011;32542;52.832;13.816;2023-03-19T06:01:23;6.18;;;2.65;;
17253;SDS011;32542;52.832;13.816;2023-03-19T06:04:28;3.25;;;2.63;;
17253;SDS011;32542;52.832;13.816;2023-03-19T06:07:31;3.53;;;2.50;;
17253;SDS011;32542;52.832;13.816;2023-03-19T06:10:35;5.07;;;2.75;;
17253;SDS011;32542;52.832;13.816;2023-03-19T06:13:43;3.15;;;2.58;;
17253;SDS011;32542;52.832;13.816;2023-03-19T06:16:49;4.07;;;2.67;;
17253;SDS011;32542;52.832;13.816;2023-03-19T06:19:54;4.10;;;2.58;;
17253;SDS011;32542;52.832;13.816;2023-03-19T06:22:57;4.03;;;2.70;;
17253;SDS011;32542;52.832;13.816;2023-03-19T06:26:01;3.38;;;2.63;;
17253;SDS011;32542;52.832;13.816;2023-03-19T06:29:09;4.68;;;2.70;;
17253;SDS011;32542;52.832;13.816;2023-03-19T06:32:13;3.78;;;2.95;;
17253;SDS011;32542;52.832;13.816;2023-03-19T06:35:18;3.10;;;2.53;;
17253;SDS011;32542;52.832;13.816;2023-03-19T06:38:22;2.88;;;2.58;;
17253;SDS011;32542;52.832;13.816;2023-03-19T06:41:25;3.25;;;2.65;;
17253;SDS011;32542;52.832;13.816;2023-03-19T06:44:36;2.97;;;2.45;;
17253;SDS011;32542;52.832;13.816;2023-03-19T06:47:39;4.43;;;2.33;;
17253;SDS011;32542;52.832;13.816;2023-03-19T06:50:45;4.40;;;2.88;;
17253;SDS011;32542;52.832;13.816;2023-03-19T06:53:48;4.63;;;3.25;;
17253;SDS011;32542;52.832;13.816;2023-03-19T06:56:51;6.22;;;3.08;;
17253;SDS011;32542;52.832;13.816;2023-03-19T06:59:54;3.72;;;2.63;;
17253;SDS011;32542;52.832;13.816;2023-03-19T07:02:57;4.20;;;2.90;;
17253;SDS011;32542;52.832;13.816;2023-03-19T07:06:01;4.45;;;3.00;;
17253;SDS011;32542;52.832;13.816;2023-03-19T07:09:04;4.20;;;3.10;;
17253;SDS011;32542;52.832;13.816;2023-03-19T07:12:07;4.13;;;3.03;;
17253;SDS011;32542;52.832;13.816;2023-03-19T07:15:10;4.78;;;2.95;;
17253;SDS011;32542;52.832;13.816;2023-03-19T07:18:13;3.80;;;2.80;;
17253;SDS011;32542;52.832;13.816;2023-03-19T07:21:17;7.88;;;3.42;;
17253;SDS011;32542;52.832;13.816;2023-03-19T07:24:21;3.92;;;2.75;;
17253;SDS011;32542;52.832;13.816;2023-03-19T07:27:23;4.38;;;2.92;;
17253;SDS011;32542;52.832;13.816;2023-03-19T07:30:26;6.47;;;3.20;;
17253;SDS011;32542;52.832;13.816;2023-03-19T07:33:29;6.20;;;2.78;;
17253;SDS011;32542;52.832;13.816;2023-03-19T07:36:33;5.60;;;3.10;;
17253;SDS011;32542;52.832;13.816;2023-03-19T07:39:36;5.30;;;3.45;;
17253;SDS011;32542;52.832;13.816;2023-03-19T07:42:39;4.80;;;3.30;;
17253;SDS011;32542;52.832;13.816;2023-03-19T07:45:46;4.20;;;3.05;;
17253;SDS011;32542;52.832;13.816;2023-03-19T07:48:49;4.32;;;2.72;;
17253;SDS011;32542;52.832;13.816;2023-03-19T07:51:53;3.75;;;2.90;;
17253;SDS011;32542;52.832;13.816;2023-03-19T07:54:55;5.82;;;3.88;;
17253;SDS011;32542;52.832;13.816;2023-03-19T07:57:58;4.38;;;2.85;;
17253;SDS011;32542;52.832;13.816;2023-03-19T08:01:01;3.30;;;2.70;;
17253;SDS011;32542;52.832;13.816;2023-03-19T08:04:04;3.25;;;2.47;;
17253;SDS011;32542;52.832;13.816;2023-03-19T08:07:09;5.10;;;3.00;;
17253;SDS011;32542;52.832;13.816;2023-03-19T08:10:13;6.30;;;2.90;;
17253;SDS011;32542;52.832;13.816;2023-03-19T08:13:16;4.18;;;3.05;;
17253;SDS011;32542;52.832;13.816;2023-03-19T08:16:18;3.97;;;2.78;;
17253;SDS011;32542;52.832;13.816;2023-03-19T08:19:22;4.63;;;3.20;;
17253;SDS011;32542;52.832;13.816;2023-03-19T08:22:26;4.13;;;2.97;;
17253;SDS011;32542;52.832;13.816;2023-03-19T08:25:28;3.50;;;2.83;;
17253;SDS011;32542;52.832;13.816;2023-03-19T08:28:32;3.72;;;2.92;;
17253;SDS011;32542;52.832;13.816;2023-03-19T08:31:35;3.55;;;2.90;;
17253;SDS011;32542;52.832;13.816;2023-03-19T08:34:38;4.18;;;2.83;;
17253;SDS011;32542;52.832;13.816;2023-03-19T08:37:42;3.88;;;2.75;;
17253;SDS011;32542;52.832;13.816;2023-03-19T08:40:45;4.00;;;3.00;;
17253;SDS011;32542;52.832;13.816;2023-03-19T08:43:49;3.35;;;2.90;;
17253;SDS011;32542;52.832;13.816;2023-03-19T08:46:52;5.55;;;3.08;;
17253;SDS011;32542;52.832;13.816;2023-03-19T08:49:56;3.67;;;2.80;;
17253;SDS011;32542;52.832;13.816;2023-03-19T08:53:00;5.35;;;3.10;;
17253;SDS011;32542;52.832;13.816;2023-03-19T08:56:03;4.25;;;3.00;;
17253;SDS011;32542;52.832;13.816;2023-03-19T08:59:08;3.67;;;2.90;;
17253;SDS011;32542;52.832;13.816;2023-03-19T09:02:11;3.60;;;3.10;;
17253;SDS011;32542;52.832;13.816;2023-03-19T09:05:14;5.82;;;3.20;;
17253;SDS011;32542;52.832;13.816;2023-03-19T09:08:18;4.75;;;3.17;;
17253;SDS011;32542;52.832;13.816;2023-03-19T09:11:21;5.18;;;3.47;;
17253;SDS011;32542;52.832;13.816;2023-03-19T09:14:24;6.80;;;3.45;;
17253;SDS011;32542;52.832;13.816;2023-03-19T09:17:27;5.32;;;2.97;;
17253;SDS011;32542;52.832;13.816;2023-03-19T09:20:30;6.72;;;3.40;;
17253;SDS011;32542;52.832;13.816;2023-03-19T09:23:34;5.97;;;4.47;;
17253;SDS011;32542;52.832;13.816;2023-03-19T09:26:37;7.45;;;4.80;;
17253;SDS011;32542;52.832;13.816;2023-03-19T09:29:40;7.88;;;5.55;;
17253;SDS011;32542;52.832;13.816;2023-03-19T09:32:42;8.75;;;4.75;;
17253;SDS011;32542;52.832;13.816;2023-03-19T09:35:48;6.32;;;4.63;;
17253;SDS011;32542;52.832;13.816;2023-03-19T09:38:53;6.57;;;4.55;;
17253;SDS011;32542;52.832;13.816;2023-03-19T09:41:59;7.65;;;5.10;;
17253;SDS011;32542;52.832;13.816;2023-03-19T09:45:11;9.52;;;4.88;;
17253;SDS011;32542;52.832;13.816;2023-03-19T09:48:17;9.52;;;4.22;;
17253;SDS011;32542;52.832;13.816;2023-03-19T09:51:29;6.50;;;3.88;;
17253;SDS011;32542;52.832;13.816;2023-03-19T09:54:43;8.10;;;4.20;;
17253;SDS011;32542;52.832;13.816;2023-03-19T09:57:48;8.63;;;4.28;;
17253;SDS011;32542;52.832;13.816;2023-03-19T10:00:53;7.20;;;4.20;;
17253;SDS011;32542;52.832;13.816;2023-03-19T10:07:41;10.30;;;4.43;;
17253;SDS011;32542;52.832;13.816;2023-03-19T10:11:01;8.43;;;4.35;;
17253;SDS011;32542;52.832;13.816;2023-03-19T10:14:22;10.02;;;4.35;;
17253;SDS011;32542;52.832;13.816;2023-03-19T10:17:39;10.85;;;4.50;;
17253;SDS011;32542;52.832;13.816;2023-03-19T10:20:45;9.73;;;4.72;;
17253;SDS011;32542;52.832;13.816;2023-03-19T10:23:53;6.85;;;4.63;;
17253;SDS011;32542;52.832;13.816;2023-03-19T10:27:06;13.63;;;5.40;;
17253;SDS011;32542;52.832;13.816;2023-03-19T10:30:12;7.43;;;4.95;;
17253;SDS011;32542;52.832;13.816;2023-03-19T10:33:20;12.30;;;5.18;;
17253;SDS011;32542;52.832;13.816;2023-03-19T10:36:25;7.95;;;4.88;;
17253;SDS011;32542;52.832;13.816;2023-03-19T10:39:32;7.70;;;4.90;;
17253;SDS011;32542;52.832;13.816;2023-03-19T10:42:41;6.97;;;5.03;;
17253;SDS011;32542;52.832;13.816;2023-03-19T10:45:55;8.27;;;5.30;;
17253;SDS011;32542;52.832;13.816;2023-03-19T10:48:58;7.80;;;4.75;;
17253;SDS011;32542;52.832;13.816;2023-03-19T10:52:02;8.32;;;5.40;;
17253;SDS011;32542;52.832;13.816;2023-03-19T10:55:11;7.40;;;4.97;;
17253;SDS011;32542;52.832;13.816;2023-03-19T10:58:18;7.95;;;5.65;;
17253;SDS011;32542;52.832;13.816;2023-03-19T11:01:25;9.55;;;4.88;;
17253;SDS011;32542;52.832;13.816;2023-03-19T11:04:30;6.80;;;4.85;;
17253;SDS011;32542;52.832;13.816;2023-03-19T11:07:33;7.13;;;4.80;;
17253;SDS011;32542;52.832;13.816;2023-03-19T11:10:42;7.28;;;4.80;;
17253;SDS011;32542;52.832;13.816;2023-03-19T11:13:49;8.70;;;5.00;;
17253;SDS011;32542;52.832;13.816;2023-03-19T11:16:56;9.80;;;5.18;;
17253;SDS011;32542;52.832;13.816;2023-03-19T11:20:12;8.23;;;4.93;;
17253;SDS011;32542;52.832;13.816;2023-03-19T11:23:25;8.05;;;5.32;;
17253;SDS011;32542;52.832;13.816;2023-03-19T11:26:29;8.07;;;5.85;;
17253;SDS011;32542;52.832;13.816;2023-03-19T11:29:34;9.52;;;5.45;;
17253;SDS011;32542;52.832;13.816;2023-03-19T11:32:50;10.18;;;6.35;;
17253;SDS011;32542;52.832;13.816;2023-03-19T11:36:07;9.73;;;5.38;;
17253;SDS011;32542;52.832;13.816;2023-03-19T11:39:17;14.23;;;5.53;;
17253;SDS011;32542;52.832;13.816;2023-03-19T11:42:36;10.30;;;5.90;;
17253;SDS011;32542;52.832;13.816;2023-03-19T11:45:52;9.35;;;6.10;;
17253;SDS011;32542;52.832;13.816;2023-03-19T11:49:10;10.02;;;5.85;;
17253;SDS011;32542;52.832;13.816;2023-03-19T11:52:24;10.30;;;6.43;;
17253;SDS011;32542;52.832;13.816;2023-03-19T11:55:36;13.95;;;7.07;;
17253;SDS011;32542;52.832;13.816;2023-03-19T11:58:49;9.07;;;6.60;;
17253;SDS011;32542;52.832;13.816;2023-03-19T12:02:12;11.98;;;6.97;;
17253;SDS011;32542;52.832;13.816;2023-03-19T12:05:34;12.25;;;7.13;;
17253;SDS011;32542;52.832;13.816;2023-03-19T12:08:48;12.13;;;7.18;;
17253;SDS011;32542;52.832;13.816;2023-03-19T12:11:58;21.42;;;7.47;;
17253;SDS011;32542;52.832;13.816;2023-03-19T12:15:15;12.73;;;8.50;;
17253;SDS011;32542;52.832;13.816;2023-03-19T12:18:32;13.68;;;7.90;;
17253;SDS011;32542;52.832;13.816;2023-03-19T12:21:55;12.60;;;7.50;;
17253;SDS011;32542;52.832;13.816;2023-03-19T12:25:20;12.63;;;8.18;;
17253;SDS011;32542;52.832;13.816;2023-03-19T12:28:30;15.55;;;7.60;;
17253;SDS011;32542;52.832;13.816;2023-03-19T12:31:39;11.95;;;8.25;;
17253;SDS011;32542;52.832;13.816;2023-03-19T12:34:51;10.55;;;7.82;;
17253;SDS011;32542;52.832;13.816;2023-03-19T12:37:58;16.05;;;7.78;;
17253;SDS011;32542;52.832;13.816;2023-03-19T12:41:05;13.00;;;8.32;;
17253;SDS011;32542;52.832;13.816;2023-03-19T12:44:12;17.05;;;8.23;;
17253;SDS011;32542;52.832;13.816;2023-03-19T12:47:22;10.05;;;7.35;;
17253;SDS011;32542;52.832;13.816;2023-03-19T12:50:29;16.77;;;7.75;;
17253;SDS011;32542;52.832;13.816;2023-03-19T12:53:39;10.38;;;7.25;;
17253;SDS011;32542;52.832;13.816;2023-03-19T12:56:50;12.45;;;8.35;;
17253;SDS011;32542;52.832;13.816;2023-03-19T13:00:00;13.70;;;8.02;;
17253;SDS011;32542;52.832;13.816;2023-03-19T13:03:09;12.55;;;7.57;;
17253;SDS011;32542;52.832;13.816;2023-03-19T13:06:20;14.93;;;7.53;;
17253;SDS011;32542;52.832;13.816;2023-03-19T13:09:28;11.50;;;7.30;;
17253;SDS011;32542;52.832;13.816;2023-03-19T13:12:38;12.48;;;7.85;;
17253;SDS011;32542;52.832;13.816;2023-03-19T13:15:42;14.38;;;7.97;;
17253;SDS011;32542;52.832;13.816;2023-03-19T13:18:49;10.13;;;7.85;;
17253;SDS011;32542;52.832;13.816;2023-03-19T13:22:03;13.90;;;7.60;;
17253;SDS011;32542;52.832;13.816;2023-03-19T13:25:13;12.48;;;7.40;;
17253;SDS011;32542;52.832;13.816;2023-03-19T13:28:19;10.38;;;6.80;;
17253;SDS011;32542;52.832;13.816;2023-03-19T13:31:32;11.13;;;7.13;;
17253;SDS011;32542;52.832;13.816;2023-03-19T13:34:37;15.50;;;7.95;;
17253;SDS011;32542;52.832;13.816;2023-03-19T13:37:41;13.70;;;8.13;;
17253;SDS011;32542;52.832;13.816;2023-03-19T13:40:46;12.95;;;7.28;;
17253;SDS011;32542;52.832;13.816;2023-03-19T13:43:53;10.75;;;7.72;;
17253;SDS011;32542;52.832;13.816;2023-03-19T13:46:57;11.63;;;7.47;;
17253;SDS011;32542;52.832;13.816;2023-03-19T13:50:09;16.08;;;7.70;;
17253;SDS011;32542;52.832;13.816;2023-03-19T13:53:38;11.38;;;8.05;;
17253;SDS011;32542;52.832;13.816;2023-03-19T13:57:01;10.10;;;7.32;;
17253;SDS011;32542;52.832;13.816;2023-03-19T14:04:00;10.35;;;6.78;;
17253;SDS011;32542;52.832;13.816;2023-03-19T14:07:09;12.15;;;7.70;;
17253;SDS011;32542;52.832;13.816;2023-03-19T14:10:15;10.15;;;7.45;;
17253;SDS011;32542;52.832;13.816;2023-03-19T14:13:29;12.48;;;6.97;;
17253;SDS011;32542;52.832;13.816;2023-03-19T14:16:36;9.93;;;6.65;;
17253;SDS011;32542;52.832;13.816;2023-03-19T14:19:43;11.90;;;7.38;;
17253;SDS011;32542;52.832;13.816;2023-03-19T14:22:52;9.75;;;6.63;;
17253;SDS011;32542;52.832;13.816;2023-03-19T14:26:02;10.30;;;7.63;;
17253;SDS011;32542;52.832;13.816;2023-03-19T14:29:10;9.45;;;7.13;;
17253;SDS011;32542;52.832;13.816;2023-03-19T14:32:16;10.73;;;7.03;;
17253;SDS011;32542;52.832;13.816;2023-03-19T14:35:22;8.50;;;6.72;;
17253;SDS011;32542;52.832;13.816;2023-03-19T14:38:28;10.40;;;7.28;;
17253;SDS011;32542;52.832;13.816;2023-03-19T14:41:41;11.10;;;6.85;;
17253;SDS011;32542;52.832;13.816;2023-03-19T14:48:39;13.57;;;6.72;;
17253;SDS011;32542;52.832;13.816;2023-03-19T14:52:09;10.77;;;6.65;;
17253;SDS011;32542;52.832;13.816;2023-03-19T14:55:15;22.48;;;7.13;;
17253;SDS011;32542;52.832;13.816;2023-03-19T14:58:20;14.02;;;7.47;;
17253;SDS011;32542;52.832;13.816;2023-03-19T15:01:24;11.02;;;7.55;;
17253;SDS011;32542;52.832;13.816;2023-03-19T15:04:28;10.18;;;7.32;;
17253;SDS011;32542;52.832;13.816;2023-03-19T15:07:31;10.93;;;7.50;;
17253;SDS011;32542;52.832;13.816;2023-03-19T15:10:40;10.23;;;7.30;;
17253;SDS011;32542;52.832;13.816;2023-03-19T15:13:55;10.05;;;7.07;;
17253;SDS011;32542;52.832;13.816;2023-03-19T15:17:11;12.63;;;6.95;;
17253;SDS011;32542;52.832;13.816;2023-03-19T15:20:20;9.27;;;7.13;;
17253;SDS011;32542;52.832;13.816;2023-03-19T15:23:25;10.30;;;7.38;;
17253;SDS011;32542;52.832;13.816;2023-03-19T15:26:30;10.43;;;7.43;;
17253;SDS011;32542;52.832;13.816;2023-03-19T15:29:36;11.13;;;6.78;;
17253;SDS011;32542;52.832;13.816;2023-03-19T15:32:39;13.23;;;7.57;;
17253;SDS011;32542;52.832;13.816;2023-03-19T15:36:04;11.63;;;7.38;;
17253;SDS011;32542;52.832;13.816;2023-03-19T15:39:14;12.23;;;7.93;;
17253;SDS011;32542;52.832;13.816;2023-03-19T15:42:21;12.23;;;7.80;;
17253;SDS011;32542;52.832;13.816;2023-03-19T15:45:27;11.30;;;8.10;;
17253;SDS011;32542;52.832;13.816;2023-03-19T15:48:34;9.43;;;7.55;;
17253;SDS011;32542;52.832;13.816;2023-03-19T15:51:43;9.60;;;7.57;;
17253;SDS011;32542;52.832;13.816;2023-03-19T15:54:53;9.55;;;7.53;;
17253;SDS011;32542;52.832;13.816;2023-03-19T15:58:01;11.30;;;7.25;;
17253;SDS011;32542;52.832;13.816;2023-03-19T16:01:10;11.70;;;8.25;;
17253;SDS011;32542;52.832;13.816;2023-03-19T16:04:15;10.57;;;8.05;;
17253;SDS011;32542;52.832;13.816;2023-03-19T16:07:22;9.80;;;7.93;;
17253;SDS011;32542;52.832;13.816;2023-03-19T16:10:31;14.25;;;8.93;;
17253;SDS011;32542;52.832;13.816;2023-03-19T16:13:40;13.05;;;8.80;;
17253;SDS011;32542;52.832;13.816;2023-03-19T16:16:49;12.23;;;8.32;;
17253;SDS011;32542;52.832;13.816;2023-03-19T16:19:54;12.88;;;8.98;;
17253;SDS011;32542;52.832;13.816;2023-03-19T16:23:01;14.00;;;9.43;;
17253;SDS011;32542;52.832;13.816;2023-03-19T16:26:08;11.90;;;8.45;;
17253;SDS011;32542;52.832;13.816;2023-03-19T16:29:18;12.93;;;9.40;;
17253;SDS011;32542;52.832;13.816;2023-03-19T16:32:26;10.68;;;8.38;;
17253;SDS011;32542;52.832;13.816;2023-03-19T16:35:30;13.15;;;8.95;;
17253;SDS011;32542;52.832;13.816;2023-03-19T16:38:39;11.63;;;9.05;;
17253;SDS011;32542;52.832;13.816;2023-03-19T16:41:49;10.73;;;8.60;;
17253;SDS011;32542;52.832;13.816;2023-03-19T16:45:16;11.55;;;7.82;;
17253;SDS011;32542;52.832;13.816;2023-03-19T16:48:27;12.93;;;8.30;;
17253;SDS011;32542;52.832;13.816;2023-03-19T16:51:30;32.03;;;16.73;;
17253;SDS011;32542;52.832;13.816;2023-03-19T16:54:33;23.48;;;11.23;;
17253;SDS011;32542;52.832;13.816;2023-03-19T16:57:36;22.98;;;12.68;;
17253;SDS011;32542;52.832;13.816;2023-03-19T17:00:39;16.77;;;11.32;;
17253;SDS011;32542;52.832;13.816;2023-03-19T17:03:45;20.15;;;11.25;;
17253;SDS011;32542;52.832;13.816;2023-03-19T17:06:49;21.52;;;11.70;;
17253;SDS011;32542;52.832;13.816;2023-03-19T17:09:52;16.90;;;11.30;;
17253;SDS011;32542;52.832;13.816;2023-03-19T17:12:54;19.45;;;10.75;;
17253;SDS011;32542;52.832;13.816;2023-03-19T17:15:59;16.35;;;11.63;;
17253;SDS011;32542;52.832;13.816;2023-03-19T17:19:06;17.38;;;11.60;;
17253;SDS011;32542;52.832;13.816;2023-03-19T17:22:17;15.35;;;11.77;;
17253;SDS011;32542;52.832;13.816;2023-03-19T17:25:20;18.50;;;12.00;;
17253;SDS011;32542;52.832;13.816;2023-03-19T17:28:26;21.98;;;11.07;;
17253;SDS011;32542;52.832;13.816;2023-03-19T17:31:29;17.33;;;10.75;;
17253;SDS011;32542;52.832;13.816;2023-03-19T17:34:35;16.83;;;10.90;;
17253;SDS011;32542;52.832;13.816;2023-03-19T17:37:39;17.50;;;11.40;;
17253;SDS011;32542;52.832;13.816;2023-03-19T17:40:42;16.00;;;11.07;;
17253;SDS011;32542;52.832;13.816;2023-03-19T17:43:45;21.38;;;12.07;;
17253;SDS011;32542;52.832;13.816;2023-03-19T17:46:50;16.85;;;10.50;;
17253;SDS011;32542;52.832;13.816;2023-03-19T17:49:57;20.75;;;11.68;;
17253;SDS011;32542;52.832;13.816;2023-03-19T17:53:00;16.30;;;11.45;;
17253;SDS011;32542;52.832;13.816;2023-03-19T17:56:03;19.23;;;11.20;;
17253;SDS011;32542;52.832;13.816;2023-03-19T17:59:07;19.25;;;11.80;;
17253;SDS011;32542;52.832;13.816;2023-03-19T18:02:14;20.52;;;12.57;;
17253;SDS011;32542;52.832;13.816;2023-03-19T18:05:26;21.02;;;12.98;;
17253;SDS011;32542;52.832;13.816;2023-03-19T18:08:29;19.77;;;11.95;;
17253;SDS011;32542;52.832;13.816;2023-03-19T18:11:32;18.08;;;12.15;;
17253;SDS011;32542;52.832;13.816;2023-03-19T18:14:35;17.98;;;12.68;;
17253;SDS011;32542;52.832;13.816;2023-03-19T18:17:38;18.73;;;12.25;;
17253;SDS011;32542;52.832;13.816;2023-03-19T18:20:44;16.58;;;11.95;;
17253;SDS011;32542;52.832;13.816;2023-03-19T18:23:47;17.33;;;12.07;;
17253;SDS011;32542;52.832;13.816;2023-03-19T18:26:50;17.92;;;12.13;;
17253;SDS011;32542;52.832;13.816;2023-03-19T18:29:53;17.52;;;13.18;;
17253;SDS011;32542;52.832;13.816;2023-03-19T18:32:56;21.50;;;13.68;;